Aérodrome :
LOGIN :

S'inscrire | Disclaimer

   EN    FR    IT 

 










Légende :    VFR   VFR Marginal   IFR   IFR Intensif   IFR Très Intensif
Visi : 
Plafond : 
>= 8 km
>= 3000ft
5 à 8 km
1000 à 3000 ft
1500m à 5 km
500 à 1000 ft
800 à 1500m
200 à 500 ft
< 800m
< 200 ft
Symboles :   Orages  Brouillard  Fortes neiges  Fortes précipitations  Vent > 20 kt
SIGMETs :   Divers  Orages  Givrage  Turbulence  Onde Orograph.  Cendres Volcan.






- Altitude de l'aérodrome : 2835 ft
- Code IATA : ISE


LTFC - Suleyman Demirel

DERNIER METAR :
  • 011420Z VRB04KT 9999 SCT035 BKN100 16/05 Q1009 RMK RWY23 33006KT 290V350

METARs EXPIRÉS :
  • 011350Z VRB02KT 9999 SCT035 BKN100 16/05 Q1009 RMK RWY23 30005KT 260V330
  • 011320Z 33003KT 250V060 9999 FEW020CB BKN035 16/05 Q1009 RMK RWY23 30003KT 240V350
  • 011250Z VRB03KT 9999 FEW020CB BKN035 16/05 Q1009 RMK RWY23 26004KT 230V330
  • 011220Z 26003KT 230V290 9999 FEW020CB BKN035 15/05 Q1009 RMK RWY23 25005KT 210V270
  • 011150Z 30007KT 270V330 9999 FEW025TCU BKN035 15/06 Q1009 RMK RWY23 28006KT 230V320

TAF TAF LTFC
Valide du 01 à 12h jusqu'au 02 à 12h UTC


011040Z 0112/0212 VRB02KT 9999 FEW020CB BKN030
TEMPO 0117/0121 -SHRA
BECMG 0121/0201 SCT035
BECMG 0208/0212 18020KT -SHRA FEW020CB BKN030



MET'MAP, la Météo Aéronautique d'un coup d'oeil ! - Copyright ORBIFLY Décembre 2007 - Disclaimer

ORBIFLY MET'MAP TEAM :

Programmation & Développement : Alexandra Zaïnal
Sur une idée originale de : Baudouin d'Aumeries
Assistance à la programmation : Marc-Olivier Méhu
Soutien technique & logistique : Manuel Goepfert

Contact : metmap@orbifly.com




SOURCES & CREDITS :

   NOAA